Flight Track Log - Related Links

Times and Time Zones

All times are in EDT time to prevent confusion due to time zone crossing. See the ASA235 flight status page for this flight to view local times or setup timezone preferences in your user account.


Time Position Orientation Groundspeed Altitude Reporting Facility
EDT Latitude Longitude Course Direction KTS MPH feet Rate Location/Type
Sat 08:15:00 PM 31.2977 -116.3367 338° Northwest  Level FlightAware Approximate
Sat 08:16:00 PM 31.3957 -116.3847 337° Northwest  Level FlightAware Approximate
Sat 08:16:35 PM 31.7931 -116.5742 337° Northwest 408 470 32,000  Level Los Angeles Center
Sat 08:17:00 PM 31.4937 -116.4328 337° Northwest  Level FlightAware Approximate
Sat 08:17:37 PM 31.8978 -116.6272 337° Northwest 409 471 32,000  Level Los Angeles Center
Sat 08:18:00 PM 31.5916 -116.4810 337° Northwest  Level FlightAware Approximate
Sat 08:18:39 PM 32.0025 -116.6800 337° Northwest 409 471 32,000  Level Los Angeles Center
Sat 08:19:00 PM 31.6895 -116.5293 337° Northwest  Level FlightAware Approximate
Sat 08:19:40 PM 32.1286 -116.7444 337° Northwest 409 471 32,000  Level Los Angeles Center
Sat 08:20:00 PM 31.7875 -116.5777 337° Northwest  Level FlightAware Approximate
Sat 08:20:42 PM 32.2353 -116.7978 337° Northwest 411 473 32,000  Level Los Angeles Center
Sat 08:21:00 PM 31.8854 -116.6262 337° Northwest  Level FlightAware Approximate
Sat 08:21:44 PM 32.3417 -116.8503 337° Northwest 411 473 32,000  Level Los Angeles Center
Sat 08:22:46 PM 32.4469 -116.9053 336° Northwest 411 473 32,000  Level Los Angeles Center
Sat 08:23:47 PM 32.5494 -116.9686 332° Northwest 417 480 32,000  Level Los Angeles Center
Sat 08:24:49 PM 32.6247 -117.0692 312° West 412 474 32,000  Level Los Angeles Center
Sat 08:25:51 PM 32.6983 -117.1717 310° West 410 472 32,000  Level Los Angeles Center
Sat 08:26:52 PM 32.7725 -117.2739 311° West 407 468 32,000  Level Los Angeles Center
Sat 08:27:54 PM 32.8542 -117.3864 311° West 408 470 32,000  Level Los Angeles Center
Sat 08:28:55 PM 32.9275 -117.4906 310° West 410 472 32,000  Level Los Angeles Center
Sat 08:29:57 PM 33.0014 -117.5947 310° West 410 472 32,000  Level Los Angeles Center
Sat 08:30:59 PM 33.0761 -117.6975 311° West 410 472 32,000  Level Los Angeles Center
Sat 08:32:00 PM 33.1647 -117.8233 310° West 411 473 32,000  Level Los Angeles Center
Sat 08:33:02 PM 33.2394 -117.9283 310° West 412 474 32,000  Level Los Angeles Center
Sat 08:34:03 PM 33.3133 -118.0339 310° West 412 474 32,000  Level Los Angeles Center
Sat 08:35:05 PM 33.3869 -118.1386 310° West 412 474 32,000  Level Los Angeles Center
Sat 08:36:07 PM 33.4594 -118.2428 310° West 410 472 32,000  Level Los Angeles Center
Sat 08:37:08 PM 33.5331 -118.3475 310° West 409 471 32,000  Level Los Angeles Center
Sat 08:38:10 PM 33.6067 -118.4539 310° West 409 471 32,000  Level Los Angeles Center
Sat 08:39:11 PM 33.6808 -118.5611 310° West 409 471 32,000  Level Los Angeles Center
Sat 08:40:13 PM 33.7539 -118.6653 310° West 407 468 32,000  Level Los Angeles Center
Sat 08:41:14 PM 33.8258 -118.7697 310° West 406 467 32,000  Level Los Angeles Center
Sat 08:42:16 PM 33.8978 -118.8731 310° West 405 466 32,000  Level Los Angeles Center
Sat 08:43:18 PM 33.9819 -118.9967 309° West 401 461 32,000  Level Los Angeles Center
Sat 08:44:19 PM 34.0533 -119.1006 310° West 401 461 32,000  Level Los Angeles Center
Sat 08:45:21 PM 34.1233 -119.2042 309° West 400 460 32,000  Level Los Angeles Center
Sat 08:46:22 PM 34.1983 -119.3028 313° West 400 460 32,000  Level Los Angeles Center
Sat 08:47:24 PM 34.2817 -119.3939 318° Northwest 401 461 32,000  Level Los Angeles Center
Sat 08:48:25 PM 34.3619 -119.4878 316° Northwest 401 461 32,000  Level Los Angeles Center
Sat 08:49:26 PM 34.4439 -119.5808 317° Northwest 402 463 32,000  Level Los Angeles Center
Sat 08:50:28 PM 34.5247 -119.6756 316° Northwest 403 464 32,000  Level Los Angeles Center
Sat 08:51:29 PM 34.6139 -119.7764 317° Northwest 403 464 32,000  Level Los Angeles Center
Sat 08:52:31 PM 34.6967 -119.8711 317° Northwest 405 466 32,000  Level Los Angeles Center
Sat 08:53:32 PM 34.7789 -119.9664 316° Northwest 405 466 32,000  Level Los Angeles Center
Sat 08:54:34 PM 34.8764 -120.0800 316° Northwest 405 466 32,000  Level Los Angeles Center
Sat 08:55:35 PM 34.9533 -120.1711 316° Northwest 405 466 32,000  Level Los Angeles Center
Sat 08:56:37 PM 35.0333 -120.2639 316° Northwest 403 464 32,000  Level Los Angeles Center
Sat 08:57:38 PM 35.1128 -120.3578 316° Northwest 402 463 32,000  Level Los Angeles Center
Sat 08:58:40 PM 35.1925 -120.4508 316° Northwest 401 461 32,000  Level Los Angeles Center
Sat 08:59:41 PM 35.2719 -120.5450 316° Northwest 401 461 32,000  Level Los Angeles Center
Sat 09:00:42 PM 35.3500 -120.6400 315° West 400 460 32,000  Level Los Angeles Center
Sat 09:01:44 PM 35.4458 -120.7533 316° Northwest 399 459 32,000  Level Los Angeles Center
Sat 09:02:45 PM 35.5358 -120.8344 324° Northwest 400 460 32,000  Level Los Angeles Center
Sat 09:03:47 PM 35.6256 -120.9161 324° Northwest 401 461 32,000  Level Los Angeles Center
Sat 09:04:48 PM 35.7097 -120.9956 323° Northwest 401 461 32,000  Level Los Angeles Center
Sat 09:05:50 PM 35.7994 -121.0789 323° Northwest 401 461 32,000  Level Los Angeles Center
Sat 09:06:51 PM 35.9072 -121.1800 323° Northwest 402 463 32,000  Level Los Angeles Center
Sat 09:08:05 PM 36.0178 -121.2783 324° Northwest 404 465 32,000  Level Oakland Center
Sat 09:09:06 PM 36.1081 -121.3631 323° Northwest 405 466 32,000 -393 Level Oakland Center
Sat 09:10:07 PM 36.1981 -121.4467 323° Northwest 404 465 31,200 -885 Descending Oakland Center
Sat 09:11:08 PM 36.2878 -121.5308 323° Northwest 404 465 30,200 -1,475 Descending Oakland Center
Sat 09:12:09 PM 36.3764 -121.6128 323° Northwest 400 460 28,200 -1,869 Descending Oakland Center
Sat 09:13:10 PM 36.4561 -121.6900 322° Northwest 366 421 26,400 -1,918 Descending Oakland Center
Sat 09:14:11 PM 36.5333 -121.7608 324° Northwest 346 398 24,300 -2,164 Descending Oakland Center
Sat 09:15:12 PM 36.6089 -121.8328 323° Northwest 338 389 22,000 -2,452 Descending Oakland Center
Sat 09:15:44 PM 36.6500 -121.8833 315° West 395 455 20,500 -2,152 Descending Northern Cal TRACON
Sat 09:16:44 PM 36.7333 -121.9500 327° Northwest 326 375 18,700 -1,667 Descending Northern Cal TRACON
Sat 09:17:50 PM 36.8167 -121.9833 342° North 318 366 17,000 -1,450 Descending Northern Cal TRACON
Sat 09:18:44 PM 36.9000 -122.0000 351° North 310 357 15,800 -1,326 Descending Northern Cal TRACON
Sat 09:19:16 PM 36.9267 -122.0133 338° Northwest 314 361 15,100 -1,548 Descending Oakland Center
Sat 09:20:17 PM 37.0047 -122.0808 325° Northwest 300 345 13,400 -1,672 Descending Oakland Center
Sat 09:21:18 PM 37.0508 -122.1669 304° West 297 342 11,700 -1,525 Descending Oakland Center
Sat 09:22:19 PM 37.0956 -122.2492 304° West 287 330 10,300 -836 Descending Oakland Center
Sat 09:23:20 PM 37.1389 -122.3281 305° West 277 319 10,000 -689 Descending Oakland Center
Sat 09:24:21 PM 37.1822 -122.4053 305° West 271 312 8,900 -984 Descending Oakland Center
Sat 09:25:22 PM 37.2408 -122.4608 323° Northwest 276 318 8,000 -443 Descending Oakland Center
Sat 09:26:23 PM 37.3114 -122.4964 338° Northwest 273 314 8,000 -49 Level Oakland Center
Sat 09:27:24 PM 37.3808 -122.5297 339° North 272 313 7,900 -590 Descending Oakland Center
Sat 09:28:25 PM 37.4247 -122.4608 51° Northeast 266 306 6,800 -934 Descending Oakland Center
Sat 09:29:26 PM 37.4267 -122.3769 88° East 254 292 6,000 -393 Descending Oakland Center
Sat 09:30:27 PM 37.4258 -122.2917 91° East 251 289 6,000  Level Oakland Center
Sat 09:31:27 PM 37.4306 -122.2106 86° East 240 276 6,000 -496 Level Oakland Center
Sat 09:32:28 PM 37.4342 -122.1200 87° East 223 257 5,000 -984 Descending Oakland Center
Sat 09:33:29 PM 37.4494 -122.0608 72° East 211 243 4,000 -441 Descending Oakland Center
Sat 09:34:44 PM 37.5000 -122.1000 328° Northwest 184 212 4,000 -148 Level Northern Cal TRACON
Sat 09:35:31 PM 37.5231 -122.1436 304° West 183 211 3,700 -722 Descending Oakland Center
Sat 09:36:32 PM 37.5450 -122.1997 296° West 181 208 2,700 -836 Descending Oakland Center
Sat 09:37:33 PM 37.5622 -122.2439 296° West 161 185 2,000 -689 Descending Oakland Center
Sat 09:38:34 PM 37.5800 -122.2842 299° West 144 166 1,300 -639 Descending Oakland Center
Sat 09:39:35 PM 37.5964 -122.3219 299° West 132 152 700 -492 Descending Oakland Center
Sat 09:40:36 PM 37.6147 -122.3664 298° West 130 150 300 -393 Descending Oakland Center
Sat 09:42:00 PM 37.6167 -122.3667 322° Northwest  Level FlightAware Approximate

Login

Don't have an account? Register now (free) for customized features, flight alerts, and more!